sensor_id;sensor_type;location;lat;lon;timestamp;pressure;altitude;pressure_sealevel;temperature;humidity
46412;BME280;32113;42.012;24.870;2023-04-25T00:02:00;98298.63;;;15.65;73.15
46412;BME280;32113;42.012;24.870;2023-04-25T00:04:26;98287.91;;;15.53;74.34
46412;BME280;32113;42.012;24.870;2023-04-25T00:06:53;98282.53;;;15.58;73.95
46412;BME280;32113;42.012;24.870;2023-04-25T00:09:18;98269.66;;;15.35;75.56
46412;BME280;32113;42.012;24.870;2023-04-25T00:11:43;98262.78;;;15.15;75.65
46412;BME280;32113;42.012;24.870;2023-04-25T00:14:09;98253.41;;;15.13;75.46
46412;BME280;32113;42.012;24.870;2023-04-25T00:16:34;98263.00;;;14.88;75.15
46412;BME280;32113;42.012;24.870;2023-04-25T00:19:00;98257.00;;;14.65;77.17
46412;BME280;32113;42.012;24.870;2023-04-25T00:21:26;98244.09;;;14.88;77.45
46412;BME280;32113;42.012;24.870;2023-04-25T00:23:53;98232.03;;;15.09;75.28
46412;BME280;32113;42.012;24.870;2023-04-25T00:26:18;98220.72;;;15.11;74.08
46412;BME280;32113;42.012;24.870;2023-04-25T00:28:44;98230.88;;;15.16;73.45
46412;BME280;32113;42.012;24.870;2023-04-25T00:31:09;98211.50;;;15.06;72.85
46412;BME280;32113;42.012;24.870;2023-04-25T00:33:34;98211.28;;;15.10;73.51
46412;BME280;32113;42.012;24.870;2023-04-25T00:36:00;98203.84;;;15.23;72.88
46412;BME280;32113;42.012;24.870;2023-04-25T00:38:25;98199.00;;;15.36;71.67
46412;BME280;32113;42.012;24.870;2023-04-25T00:40:50;98202.47;;;15.56;70.32
46412;BME280;32113;42.012;24.870;2023-04-25T00:43:16;98207.84;;;15.71;70.19
46412;BME280;32113;42.012;24.870;2023-04-25T00:45:41;98209.66;;;15.88;69.13
46412;BME280;32113;42.012;24.870;2023-04-25T00:48:07;98212.88;;;15.93;69.00
46412;BME280;32113;42.012;24.870;2023-04-25T00:50:33;98221.22;;;16.00;67.95
46412;BME280;32113;42.012;24.870;2023-04-25T00:52:59;98226.47;;;15.98;68.85
46412;BME280;32113;42.012;24.870;2023-04-25T00:55:25;98224.50;;;16.03;69.80
46412;BME280;32113;42.012;24.870;2023-04-25T00:57:50;98229.22;;;15.95;70.58
46412;BME280;32113;42.012;24.870;2023-04-25T01:00:16;98230.66;;;16.01;70.56
46412;BME280;32113;42.012;24.870;2023-04-25T01:02:42;98225.59;;;15.99;70.95
46412;BME280;32113;42.012;24.870;2023-04-25T01:05:08;98217.81;;;15.99;70.79
46412;BME280;32113;42.012;24.870;2023-04-25T01:07:34;98221.63;;;15.90;71.48
46412;BME280;32113;42.012;24.870;2023-04-25T01:09:59;98219.31;;;15.84;72.28
46412;BME280;32113;42.012;24.870;2023-04-25T01:12:24;98216.78;;;15.83;72.60
46412;BME280;32113;42.012;24.870;2023-04-25T01:14:50;98222.19;;;15.78;72.75
46412;BME280;32113;42.012;24.870;2023-04-25T01:17:15;98218.13;;;15.72;72.98
46412;BME280;32113;42.012;24.870;2023-04-25T01:19:41;98212.31;;;15.67;73.48
46412;BME280;32113;42.012;24.870;2023-04-25T01:22:06;98214.69;;;15.53;74.43
46412;BME280;32113;42.012;24.870;2023-04-25T01:24:32;98219.00;;;15.52;74.47
46412;BME280;32113;42.012;24.870;2023-04-25T01:26:58;98218.16;;;15.52;74.81
46412;BME280;32113;42.012;24.870;2023-04-25T01:29:24;98215.09;;;15.43;75.41
46412;BME280;32113;42.012;24.870;2023-04-25T01:31:50;98226.47;;;15.39;75.74
46412;BME280;32113;42.012;24.870;2023-04-25T01:34:16;98223.94;;;15.37;75.99
46412;BME280;32113;42.012;24.870;2023-04-25T01:36:41;98232.56;;;15.38;75.90
46412;BME280;32113;42.012;24.870;2023-04-25T01:39:06;98231.44;;;15.23;77.05
46412;BME280;32113;42.012;24.870;2023-04-25T01:41:32;98235.50;;;15.08;77.61
46412;BME280;32113;42.012;24.870;2023-04-25T01:43:57;98231.00;;;15.13;77.58
46412;BME280;32113;42.012;24.870;2023-04-25T01:46:23;98237.56;;;15.00;78.20
46412;BME280;32113;42.012;24.870;2023-04-25T01:48:48;98235.25;;;14.93;79.04
46412;BME280;32113;42.012;24.870;2023-04-25T01:51:13;98244.94;;;14.88;79.28
46412;BME280;32113;42.012;24.870;2023-04-25T01:53:40;98246.72;;;14.86;79.68
46412;BME280;32113;42.012;24.870;2023-04-25T01:56:05;98238.97;;;14.86;80.53
46412;BME280;32113;42.012;24.870;2023-04-25T01:58:31;98232.88;;;14.89;80.46
46412;BME280;32113;42.012;24.870;2023-04-25T02:00:56;98231.63;;;14.77;80.70
46412;BME280;32113;42.012;24.870;2023-04-25T02:03:21;98225.03;;;14.90;80.51
46412;BME280;32113;42.012;24.870;2023-04-25T02:05:46;98214.59;;;14.93;80.47
46412;BME280;32113;42.012;24.870;2023-04-25T02:08:12;98218.66;;;14.99;79.86
46412;BME280;32113;42.012;24.870;2023-04-25T02:10:37;98211.16;;;14.93;79.88
46412;BME280;32113;42.012;24.870;2023-04-25T02:13:02;98208.91;;;15.06;78.85
46412;BME280;32113;42.012;24.870;2023-04-25T02:15:29;98204.97;;;15.18;78.15
46412;BME280;32113;42.012;24.870;2023-04-25T02:17:54;98203.84;;;15.23;77.85
46412;BME280;32113;42.012;24.870;2023-04-25T02:20:20;98207.22;;;15.26;77.63
46412;BME280;32113;42.012;24.870;2023-04-25T02:22:46;98214.75;;;15.30;77.01
46412;BME280;32113;42.012;24.870;2023-04-25T02:25:11;98217.50;;;15.27;77.02
46412;BME280;32113;42.012;24.870;2023-04-25T02:27:37;98205.00;;;15.37;76.09
46412;BME280;32113;42.012;24.870;2023-04-25T02:30:03;98209.06;;;15.43;76.15
46412;BME280;32113;42.012;24.870;2023-04-25T02:32:28;98213.91;;;15.50;75.22
46412;BME280;32113;42.012;24.870;2023-04-25T02:34:53;98211.94;;;15.56;74.74
46412;BME280;32113;42.012;24.870;2023-04-25T02:37:19;98211.13;;;15.55;74.42
46412;BME280;32113;42.012;24.870;2023-04-25T02:39:44;98207.06;;;15.49;74.75
46412;BME280;32113;42.012;24.870;2023-04-25T02:42:09;98206.47;;;15.43;75.16
46412;BME280;32113;42.012;24.870;2023-04-25T02:44:35;98214.94;;;15.46;74.75
46412;BME280;32113;42.012;24.870;2023-04-25T02:47:00;98214.13;;;15.46;74.74
46412;BME280;32113;42.012;24.870;2023-04-25T02:49:25;98204.25;;;15.35;75.59
46412;BME280;32113;42.012;24.870;2023-04-25T02:51:50;98211.09;;;15.36;75.39
46412;BME280;32113;42.012;24.870;2023-04-25T02:54:16;98198.94;;;15.38;74.98
46412;BME280;32113;42.012;24.870;2023-04-25T02:56:41;98210.81;;;15.42;74.71
46412;BME280;32113;42.012;24.870;2023-04-25T02:59:06;98207.66;;;15.35;75.22
46412;BME280;32113;42.012;24.870;2023-04-25T03:01:31;98216.06;;;15.41;75.04
46412;BME280;32113;42.012;24.870;2023-04-25T03:03:57;98211.47;;;15.47;74.30
46412;BME280;32113;42.012;24.870;2023-04-25T03:06:22;98225.09;;;15.51;73.94
46412;BME280;32113;42.012;24.870;2023-04-25T03:08:47;98223.13;;;15.56;73.62
46412;BME280;32113;42.012;24.870;2023-04-25T03:11:13;98218.66;;;15.60;73.72
46412;BME280;32113;42.012;24.870;2023-04-25T03:13:38;98215.94;;;15.63;72.80
46412;BME280;32113;42.012;24.870;2023-04-25T03:16:03;98220.44;;;15.59;72.53
46412;BME280;32113;42.012;24.870;2023-04-25T03:18:29;98222.34;;;15.54;72.94
46412;BME280;32113;42.012;24.870;2023-04-25T03:20:54;98228.66;;;15.48;73.29
46412;BME280;32113;42.012;24.870;2023-04-25T03:23:19;98236.75;;;15.41;74.22
46412;BME280;32113;42.012;24.870;2023-04-25T03:25:45;98233.38;;;15.39;73.80
46412;BME280;32113;42.012;24.870;2023-04-25T03:28:10;98224.97;;;15.33;74.30
46412;BME280;32113;42.012;24.870;2023-04-25T03:30:35;98229.13;;;15.37;73.82
46412;BME280;32113;42.012;24.870;2023-04-25T03:33:01;98221.41;;;15.36;74.55
46412;BME280;32113;42.012;24.870;2023-04-25T03:35:26;98220.56;;;15.35;74.41
46412;BME280;32113;42.012;24.870;2023-04-25T03:37:51;98212.00;;;15.35;74.23
46412;BME280;32113;42.012;24.870;2023-04-25T03:40:16;98210.91;;;15.41;74.30
46412;BME280;32113;42.012;24.870;2023-04-25T03:42:42;98211.53;;;15.46;73.81
46412;BME280;32113;42.012;24.870;2023-04-25T03:45:07;98213.84;;;15.52;73.31
46412;BME280;32113;42.012;24.870;2023-04-25T03:47:32;98213.44;;;15.61;73.01
46412;BME280;32113;42.012;24.870;2023-04-25T03:49:58;98214.59;;;15.54;73.15
46412;BME280;32113;42.012;24.870;2023-04-25T03:52:25;98212.09;;;15.53;72.61
46412;BME280;32113;42.012;24.870;2023-04-25T03:54:50;98204.41;;;15.51;72.37
46412;BME280;32113;42.012;24.870;2023-04-25T03:57:16;98203.31;;;15.36;70.35
46412;BME280;32113;42.012;24.870;2023-04-25T03:59:41;98214.13;;;15.25;70.75
46412;BME280;32113;42.012;24.870;2023-04-25T04:02:06;98196.13;;;15.03;70.46
46412;BME280;32113;42.012;24.870;2023-04-25T04:04:31;98198.56;;;14.85;71.23
46412;BME280;32113;42.012;24.870;2023-04-25T04:06:57;98195.16;;;14.62;71.76
46412;BME280;32113;42.012;24.870;2023-04-25T04:09:22;98192.84;;;14.56;72.29
46412;BME280;32113;42.012;24.870;2023-04-25T04:11:47;98189.84;;;14.44;72.18
46412;BME280;32113;42.012;24.870;2023-04-25T04:14:12;98195.03;;;14.44;71.87
46412;BME280;32113;42.012;24.870;2023-04-25T04:16:38;98194.16;;;14.44;71.94
46412;BME280;32113;42.012;24.870;2023-04-25T04:19:03;98193.50;;;14.39;72.64
46412;BME280;32113;42.012;24.870;2023-04-25T04:21:29;98200.94;;;14.47;72.44
46412;BME280;32113;42.012;24.870;2023-04-25T04:23:55;98199.03;;;14.52;71.58
46412;BME280;32113;42.012;24.870;2023-04-25T04:26:20;98196.66;;;14.68;70.87
46412;BME280;32113;42.012;24.870;2023-04-25T04:28:48;98194.00;;;14.69;70.34
46412;BME280;32113;42.012;24.870;2023-04-25T04:31:15;98190.22;;;14.78;70.08
46412;BME280;32113;42.012;24.870;2023-04-25T04:33:40;98194.19;;;14.87;69.35
46412;BME280;32113;42.012;24.870;2023-04-25T04:36:06;98196.91;;;14.84;69.68
46412;BME280;32113;42.012;24.870;2023-04-25T04:38:32;98197.47;;;14.91;69.53
46412;BME280;32113;42.012;24.870;2023-04-25T04:40:58;98201.41;;;15.00;69.03
46412;BME280;32113;42.012;24.870;2023-04-25T04:43:23;98205.47;;;15.05;67.74
46412;BME280;32113;42.012;24.870;2023-04-25T04:45:49;98203.53;;;15.10;66.75
46412;BME280;32113;42.012;24.870;2023-04-25T04:48:15;98206.25;;;14.87;67.38
46412;BME280;32113;42.012;24.870;2023-04-25T04:50:40;98202.72;;;14.89;67.87
46412;BME280;32113;42.012;24.870;2023-04-25T04:53:06;98206.84;;;14.93;67.62
46412;BME280;32113;42.012;24.870;2023-04-25T04:55:32;98211.53;;;14.83;67.80
46412;BME280;32113;42.012;24.870;2023-04-25T04:57:57;98210.72;;;14.83;67.73
46412;BME280;32113;42.012;24.870;2023-04-25T05:00:22;98211.53;;;14.83;66.76
46412;BME280;32113;42.012;24.870;2023-04-25T05:02:48;98212.06;;;14.92;67.27
46412;BME280;32113;42.012;24.870;2023-04-25T05:05:13;98206.00;;;15.14;66.08
46412;BME280;32113;42.012;24.870;2023-04-25T05:07:38;98211.59;;;15.23;66.62
46412;BME280;32113;42.012;24.870;2023-04-25T05:10:03;98204.13;;;15.17;65.66
46412;BME280;32113;42.012;24.870;2023-04-25T05:12:29;98205.03;;;15.16;66.55
46412;BME280;32113;42.012;24.870;2023-04-25T05:14:55;98204.63;;;15.05;67.09
46412;BME280;32113;42.012;24.870;2023-04-25T05:17:20;98199.47;;;15.05;64.58
46412;BME280;32113;42.012;24.870;2023-04-25T05:19:45;98198.84;;;15.20;65.24
46412;BME280;32113;42.012;24.870;2023-04-25T05:22:11;98192.34;;;15.31;64.64
46412;BME280;32113;42.012;24.870;2023-04-25T05:24:36;98191.72;;;15.45;65.21
46412;BME280;32113;42.012;24.870;2023-04-25T05:27:01;98206.72;;;15.57;66.04
46412;BME280;32113;42.012;24.870;2023-04-25T05:29:27;98201.00;;;15.70;65.79
46412;BME280;32113;42.012;24.870;2023-04-25T05:31:52;98197.50;;;15.90;64.51
46412;BME280;32113;42.012;24.870;2023-04-25T05:34:18;98181.31;;;16.06;62.63
46412;BME280;32113;42.012;24.870;2023-04-25T05:36:43;98190.09;;;16.21;61.78
46412;BME280;32113;42.012;24.870;2023-04-25T05:39:08;98193.84;;;16.33;59.45
46412;BME280;32113;42.012;24.870;2023-04-25T05:41:33;98195.91;;;16.44;60.85
46412;BME280;32113;42.012;24.870;2023-04-25T05:43:59;98193.78;;;16.52;61.00
46412;BME280;32113;42.012;24.870;2023-04-25T05:46:24;98184.50;;;16.65;60.08
46412;BME280;32113;42.012;24.870;2023-04-25T05:48:49;98187.50;;;16.75;60.96
46412;BME280;32113;42.012;24.870;2023-04-25T05:51:15;98190.97;;;16.92;62.34
46412;BME280;32113;42.012;24.870;2023-04-25T05:53:41;98188.78;;;17.02;62.34
46412;BME280;32113;42.012;24.870;2023-04-25T05:56:06;98188.34;;;17.11;62.42
46412;BME280;32113;42.012;24.870;2023-04-25T05:58:31;98180.75;;;17.24;61.70
46412;BME280;32113;42.012;24.870;2023-04-25T06:00:57;98182.88;;;17.33;60.55
46412;BME280;32113;42.012;24.870;2023-04-25T06:03:23;98183.63;;;17.36;60.94
46412;BME280;32113;42.012;24.870;2023-04-25T06:05:48;98185.63;;;17.30;59.54
46412;BME280;32113;42.012;24.870;2023-04-25T06:08:13;98190.06;;;17.28;60.00
46412;BME280;32113;42.012;24.870;2023-04-25T06:10:38;98180.88;;;17.39;60.41
46412;BME280;32113;42.012;24.870;2023-04-25T06:13:04;98187.50;;;17.44;60.04
46412;BME280;32113;42.012;24.870;2023-04-25T06:15:29;98181.88;;;17.36;60.91
46412;BME280;32113;42.012;24.870;2023-04-25T06:17:55;98184.25;;;17.41;61.65
46412;BME280;32113;42.012;24.870;2023-04-25T06:20:20;98181.66;;;17.41;63.69
46412;BME280;32113;42.012;24.870;2023-04-25T06:22:48;98191.09;;;17.42;63.98
46412;BME280;32113;42.012;24.870;2023-04-25T06:25:13;98186.44;;;17.49;64.57
46412;BME280;32113;42.012;24.870;2023-04-25T06:27:39;98186.44;;;17.49;64.22
46412;BME280;32113;42.012;24.870;2023-04-25T06:30:04;98183.50;;;17.55;63.99
46412;BME280;32113;42.012;24.870;2023-04-25T06:32:30;98182.66;;;17.54;64.02
46412;BME280;32113;42.012;24.870;2023-04-25T06:34:55;98178.81;;;17.62;63.77
46412;BME280;32113;42.012;24.870;2023-04-25T06:37:20;98180.34;;;17.66;64.26
46412;BME280;32113;42.012;24.870;2023-04-25T06:39:46;98184.03;;;17.78;64.37
46412;BME280;32113;42.012;24.870;2023-04-25T06:42:11;98183.09;;;17.79;62.73
46412;BME280;32113;42.012;24.870;2023-04-25T06:44:36;98176.66;;;17.70;62.49
46412;BME280;32113;42.012;24.870;2023-04-25T06:47:01;98173.47;;;17.65;62.56
46412;BME280;32113;42.012;24.870;2023-04-25T06:49:27;98176.22;;;17.62;61.70
46412;BME280;32113;42.012;24.870;2023-04-25T06:51:52;98171.97;;;17.60;62.27
46412;BME280;32113;42.012;24.870;2023-04-25T06:54:17;98174.31;;;17.65;62.77
46412;BME280;32113;42.012;24.870;2023-04-25T06:56:42;98167.03;;;17.72;63.17
46412;BME280;32113;42.012;24.870;2023-04-25T06:59:08;98170.63;;;17.69;62.26
46412;BME280;32113;42.012;24.870;2023-04-25T07:01:34;98166.22;;;17.71;63.51
46412;BME280;32113;42.012;24.870;2023-04-25T07:04:00;98167.47;;;17.80;61.41
46412;BME280;32113;42.012;24.870;2023-04-25T07:06:25;98170.13;;;17.79;61.60
46412;BME280;32113;42.012;24.870;2023-04-25T07:08:51;98169.13;;;17.81;60.25
46412;BME280;32113;42.012;24.870;2023-04-25T07:11:17;98161.41;;;17.96;59.59
46412;BME280;32113;42.012;24.870;2023-04-25T07:13:42;98162.00;;;18.01;59.43
46412;BME280;32113;42.012;24.870;2023-04-25T07:16:07;98146.19;;;18.06;59.87
46412;BME280;32113;42.012;24.870;2023-04-25T07:18:32;98150.97;;;18.14;59.23
46412;BME280;32113;42.012;24.870;2023-04-25T07:20:58;98162.59;;;18.22;59.76
46412;BME280;32113;42.012;24.870;2023-04-25T07:23:23;98162.00;;;18.33;57.24
46412;BME280;32113;42.012;24.870;2023-04-25T07:25:50;98163.00;;;18.31;57.03
46412;BME280;32113;42.012;24.870;2023-04-25T07:28:15;98154.84;;;18.37;58.15
46412;BME280;32113;42.012;24.870;2023-04-25T07:30:40;98162.25;;;18.45;58.05
46412;BME280;32113;42.012;24.870;2023-04-25T07:33:05;98165.81;;;18.58;56.89
46412;BME280;32113;42.012;24.870;2023-04-25T07:35:31;98155.06;;;18.64;56.96
46412;BME280;32113;42.012;24.870;2023-04-25T07:37:56;98152.88;;;18.87;56.72
46412;BME280;32113;42.012;24.870;2023-04-25T07:40:22;98151.34;;;19.14;55.00
46412;BME280;32113;42.012;24.870;2023-04-25T07:42:47;98151.03;;;19.33;54.18
46412;BME280;32113;42.012;24.870;2023-04-25T07:45:12;98150.41;;;19.44;53.98
46412;BME280;32113;42.012;24.870;2023-04-25T07:47:38;98149.56;;;19.58;53.77
46412;BME280;32113;42.012;24.870;2023-04-25T07:50:03;98151.28;;;19.72;51.68
46412;BME280;32113;42.012;24.870;2023-04-25T07:52:29;98146.59;;;19.50;51.86
46412;BME280;32113;42.012;24.870;2023-04-25T07:54:54;98158.47;;;19.54;52.83
46412;BME280;32113;42.012;24.870;2023-04-25T07:57:19;98145.63;;;19.65;54.39
46412;BME280;32113;42.012;24.870;2023-04-25T07:59:45;98149.13;;;19.79;55.24
46412;BME280;32113;42.012;24.870;2023-04-25T08:02:10;98146.03;;;19.87;54.41
46412;BME280;32113;42.012;24.870;2023-04-25T08:04:35;98147.69;;;19.88;55.10
46412;BME280;32113;42.012;24.870;2023-04-25T08:07:01;98143.00;;;19.80;54.41
46412;BME280;32113;42.012;24.870;2023-04-25T08:09:26;98143.28;;;19.75;54.69
46412;BME280;32113;42.012;24.870;2023-04-25T08:11:51;98145.44;;;19.68;55.88
46412;BME280;32113;42.012;24.870;2023-04-25T08:14:17;98154.66;;;19.60;55.61
46412;BME280;32113;42.012;24.870;2023-04-25T08:16:42;98164.22;;;19.59;56.22
46412;BME280;32113;42.012;24.870;2023-04-25T08:19:07;98156.44;;;19.45;57.65
46412;BME280;32113;42.012;24.870;2023-04-25T08:21:33;98149.28;;;19.34;56.20
46412;BME280;32113;42.012;24.870;2023-04-25T08:23:58;98156.25;;;19.33;56.98
46412;BME280;32113;42.012;24.870;2023-04-25T08:26:24;98153.84;;;19.30;56.92
46412;BME280;32113;42.012;24.870;2023-04-25T08:28:49;98161.44;;;19.19;56.82
46412;BME280;32113;42.012;24.870;2023-04-25T08:31:14;98160.50;;;19.05;57.99
46412;BME280;32113;42.012;24.870;2023-04-25T08:33:40;98152.97;;;19.00;57.70
46412;BME280;32113;42.012;24.870;2023-04-25T08:36:05;98157.69;;;18.94;58.37
46412;BME280;32113;42.012;24.870;2023-04-25T08:38:30;98151.38;;;18.83;58.04
46412;BME280;32113;42.012;24.870;2023-04-25T08:40:56;98153.97;;;18.83;57.91
46412;BME280;32113;42.012;24.870;2023-04-25T08:43:21;98151.78;;;18.91;57.83
46412;BME280;32113;42.012;24.870;2023-04-25T08:45:48;98151.56;;;18.95;58.77
46412;BME280;32113;42.012;24.870;2023-04-25T08:48:14;98149.84;;;19.10;57.55
46412;BME280;32113;42.012;24.870;2023-04-25T08:50:40;98155.34;;;19.20;56.61
46412;BME280;32113;42.012;24.870;2023-04-25T08:53:09;98156.72;;;19.25;57.46
46412;BME280;32113;42.012;24.870;2023-04-25T08:55:41;98157.56;;;19.40;57.87
46412;BME280;32113;42.012;24.870;2023-04-25T08:58:06;98163.13;;;19.49;57.99
46412;BME280;32113;42.012;24.870;2023-04-25T09:00:32;98163.78;;;19.52;57.08
46412;BME280;32113;42.012;24.870;2023-04-25T09:02:58;98162.94;;;19.52;55.75
46412;BME280;32113;42.012;24.870;2023-04-25T09:05:23;98167.22;;;19.53;55.79
46412;BME280;32113;42.012;24.870;2023-04-25T09:07:49;98168.03;;;19.53;56.90
46412;BME280;32113;42.012;24.870;2023-04-25T09:10:14;98177.81;;;19.50;57.24
46412;BME280;32113;42.012;24.870;2023-04-25T09:12:40;98179.66;;;19.48;56.96
46412;BME280;32113;42.012;24.870;2023-04-25T09:15:09;98176.41;;;19.44;57.19
46412;BME280;32113;42.012;24.870;2023-04-25T09:17:35;98178.19;;;19.43;58.06
46412;BME280;32113;42.012;24.870;2023-04-25T09:20:14;98174.66;;;19.30;58.41
46412;BME280;32113;42.012;24.870;2023-04-25T09:22:40;98181.31;;;19.05;60.29
46412;BME280;32113;42.012;24.870;2023-04-25T09:25:09;98184.41;;;18.81;62.30
46412;BME280;32113;42.012;24.870;2023-04-25T09:27:35;98182.59;;;18.67;64.78
46412;BME280;32113;42.012;24.870;2023-04-25T09:30:01;98179.56;;;18.44;66.24
46412;BME280;32113;42.012;24.870;2023-04-25T09:32:26;98169.97;;;18.30;66.71
46412;BME280;32113;42.012;24.870;2023-04-25T09:34:52;98163.56;;;18.36;67.66
46412;BME280;32113;42.012;24.870;2023-04-25T09:37:21;98153.69;;;18.43;69.59
46412;BME280;32113;42.012;24.870;2023-04-25T09:39:48;98147.78;;;18.55;69.79
46412;BME280;32113;42.012;24.870;2023-04-25T09:42:15;98139.09;;;18.71;70.21
46412;BME280;32113;42.012;24.870;2023-04-25T09:44:47;98135.41;;;19.04;72.00
46412;BME280;32113;42.012;24.870;2023-04-25T09:47:13;98138.50;;;19.40;72.39
46412;BME280;32113;42.012;24.870;2023-04-25T09:49:41;98137.25;;;19.75;70.29
46412;BME280;32113;42.012;24.870;2023-04-25T09:52:30;98137.69;;;19.81;66.94
46412;BME280;32113;42.012;24.870;2023-04-25T09:54:55;98140.00;;;20.01;65.80
46412;BME280;32113;42.012;24.870;2023-04-25T09:57:21;98142.56;;;20.15;65.02
46412;BME280;32113;42.012;24.870;2023-04-25T09:59:54;98147.53;;;20.18;64.28
46412;BME280;32113;42.012;24.870;2023-04-25T10:02:20;98136.94;;;20.21;63.47
46412;BME280;32113;42.012;24.870;2023-04-25T10:04:48;98135.53;;;20.30;63.24
46412;BME280;32113;42.012;24.870;2023-04-25T10:07:13;98126.78;;;20.31;63.86
46412;BME280;32113;42.012;24.870;2023-04-25T10:09:39;98122.78;;;20.26;64.17
46412;BME280;32113;42.012;24.870;2023-04-25T10:12:06;98126.94;;;20.15;64.94
46412;BME280;32113;42.012;24.870;2023-04-25T10:14:32;98127.53;;;20.06;64.47
46412;BME280;32113;42.012;24.870;2023-04-25T10:16:58;98129.03;;;19.95;60.47
46412;BME280;32113;42.012;24.870;2023-04-25T10:19:24;98119.03;;;19.75;60.18
46412;BME280;32113;42.012;24.870;2023-04-25T10:21:54;98118.31;;;19.73;60.58
46412;BME280;32113;42.012;24.870;2023-04-25T10:24:20;98108.25;;;19.66;60.13
46412;BME280;32113;42.012;24.870;2023-04-25T10:26:46;98112.94;;;19.61;58.98
46412;BME280;32113;42.012;24.870;2023-04-25T10:29:12;98100.94;;;19.59;59.50
46412;BME280;32113;42.012;24.870;2023-04-25T10:31:47;98083.59;;;19.59;60.22
46412;BME280;32113;42.012;24.870;2023-04-25T10:34:12;98082.66;;;19.60;61.85
46412;BME280;32113;42.012;24.870;2023-04-25T10:36:37;98070.34;;;19.35;63.44
46412;BME280;32113;42.012;24.870;2023-04-25T10:39:06;98070.66;;;19.15;65.42
46412;BME280;32113;42.012;24.870;2023-04-25T10:41:47;98063.31;;;19.22;65.96
46412;BME280;32113;42.012;24.870;2023-04-25T10:44:13;98053.56;;;19.11;65.15
46412;BME280;32113;42.012;24.870;2023-04-25T10:46:38;98045.19;;;18.77;64.63
46412;BME280;32113;42.012;24.870;2023-04-25T10:49:03;98042.50;;;18.78;65.69
46412;BME280;32113;42.012;24.870;2023-04-25T10:51:30;98037.22;;;18.65;64.58
46412;BME280;32113;42.012;24.870;2023-04-25T10:54:05;98040.53;;;18.53;63.58
46412;BME280;32113;42.012;24.870;2023-04-25T10:56:37;98039.25;;;18.60;64.61
46412;BME280;32113;42.012;24.870;2023-04-25T11:01:37;98038.13;;;18.50;65.46
46412;BME280;32113;42.012;24.870;2023-04-25T11:04:02;98042.38;;;18.36;65.77
46412;BME280;32113;42.012;24.870;2023-04-25T11:06:42;98027.56;;;18.68;65.23
46412;BME280;32113;42.012;24.870;2023-04-25T11:09:10;98021.63;;;18.95;65.69
46412;BME280;32113;42.012;24.870;2023-04-25T11:11:38;98015.72;;;19.35;64.60
46412;BME280;32113;42.012;24.870;2023-04-25T11:14:03;98011.50;;;19.47;65.02
46412;BME280;32113;42.012;24.870;2023-04-25T11:16:29;98008.72;;;19.50;61.28
46412;BME280;32113;42.012;24.870;2023-04-25T11:18:57;98002.31;;;19.55;61.78
46412;BME280;32113;42.012;24.870;2023-04-25T11:21:22;97991.44;;;19.76;60.35
46412;BME280;32113;42.012;24.870;2023-04-25T11:23:47;97990.94;;;19.97;59.94
46412;BME280;32113;42.012;24.870;2023-04-25T11:26:13;97974.78;;;20.19;59.28
46412;BME280;32113;42.012;24.870;2023-04-25T11:28:40;97982.69;;;20.31;57.53
46412;BME280;32113;42.012;24.870;2023-04-25T11:31:05;97979.56;;;20.26;56.55
46412;BME280;32113;42.012;24.870;2023-04-25T11:33:30;97970.50;;;20.31;56.13
46412;BME280;32113;42.012;24.870;2023-04-25T11:35:56;97972.16;;;20.45;54.45
46412;BME280;32113;42.012;24.870;2023-04-25T11:38:25;97968.59;;;20.46;53.80
46412;BME280;32113;42.012;24.870;2023-04-25T11:40:54;97959.75;;;20.62;51.61
46412;BME280;32113;42.012;24.870;2023-04-25T11:43:20;97959.19;;;20.70;50.01
46412;BME280;32113;42.012;24.870;2023-04-25T11:45:46;97957.59;;;20.80;51.30
46412;BME280;32113;42.012;24.870;2023-04-25T11:48:12;97952.53;;;20.92;49.94
46412;BME280;32113;42.012;24.870;2023-04-25T11:50:38;97945.88;;;21.12;49.83
46412;BME280;32113;42.012;24.870;2023-04-25T11:53:04;97944.94;;;21.13;47.93
46412;BME280;32113;42.012;24.870;2023-04-25T11:55:29;97939.44;;;21.29;48.36
46412;BME280;32113;42.012;24.870;2023-04-25T11:57:55;97934.06;;;21.44;46.90
46412;BME280;32113;42.012;24.870;2023-04-25T12:00:21;97924.50;;;21.56;46.09
46412;BME280;32113;42.012;24.870;2023-04-25T12:02:47;97925.78;;;21.50;46.49
46412;BME280;32113;42.012;24.870;2023-04-25T12:05:14;97925.66;;;21.51;45.44
46412;BME280;32113;42.012;24.870;2023-04-25T12:07:40;97925.41;;;21.55;47.57
46412;BME280;32113;42.012;24.870;2023-04-25T12:10:12;97914.66;;;21.35;47.04
46412;BME280;32113;42.012;24.870;2023-04-25T12:12:40;97908.16;;;21.29;46.94
46412;BME280;32113;42.012;24.870;2023-04-25T12:15:10;97907.34;;;21.40;45.76
46412;BME280;32113;42.012;24.870;2023-04-25T12:17:36;97900.47;;;21.14;47.06
46412;BME280;32113;42.012;24.870;2023-04-25T12:20:09;97895.41;;;21.13;45.80
46412;BME280;32113;42.012;24.870;2023-04-25T12:22:35;97889.63;;;21.21;45.48
46412;BME280;32113;42.012;24.870;2023-04-25T12:25:01;97888.50;;;21.12;44.13
46412;BME280;32113;42.012;24.870;2023-04-25T12:27:30;97890.81;;;21.28;45.24
46412;BME280;32113;42.012;24.870;2023-04-25T12:29:55;97891.47;;;21.43;43.80
46412;BME280;32113;42.012;24.870;2023-04-25T12:32:21;97898.78;;;21.62;43.96
46412;BME280;32113;42.012;24.870;2023-04-25T12:34:47;97895.38;;;21.73;43.99
46412;BME280;32113;42.012;24.870;2023-04-25T12:37:12;97893.88;;;21.94;43.20
46412;BME280;32113;42.012;24.870;2023-04-25T12:39:37;97903.03;;;21.99;42.10
46412;BME280;32113;42.012;24.870;2023-04-25T12:42:03;97901.94;;;21.55;42.66
46412;BME280;32113;42.012;24.870;2023-04-25T12:44:28;97901.19;;;21.41;42.13
46412;BME280;32113;42.012;24.870;2023-04-25T12:46:54;97903.53;;;21.33;41.50